sensor_id;sensor_type;location;lat;lon;timestamp;temperature;humidity
43949;DHT22;29429;51.074;13.764;2022-10-16T00:01:38;13.70;99.90
43949;DHT22;29429;51.074;13.764;2022-10-16T00:04:05;13.70;99.90
43949;DHT22;29429;51.074;13.764;2022-10-16T00:06:32;13.70;99.90
43949;DHT22;29429;51.074;13.764;2022-10-16T00:08:59;13.70;99.90
43949;DHT22;29429;51.074;13.764;2022-10-16T00:11:32;13.60;99.90
43949;DHT22;29429;51.074;13.764;2022-10-16T00:14:02;13.50;99.90
43949;DHT22;29429;51.074;13.764;2022-10-16T00:16:30;13.60;99.90
43949;DHT22;29429;51.074;13.764;2022-10-16T00:18:58;13.60;99.90
43949;DHT22;29429;51.074;13.764;2022-10-16T00:21:27;13.60;99.90
43949;DHT22;29429;51.074;13.764;2022-10-16T00:23:58;13.50;99.90
43949;DHT22;29429;51.074;13.764;2022-10-16T00:26:28;13.40;99.90
43949;DHT22;29429;51.074;13.764;2022-10-16T00:28:56;13.50;99.90
43949;DHT22;29429;51.074;13.764;2022-10-16T00:31:24;13.50;99.90
43949;DHT22;29429;51.074;13.764;2022-10-16T00:33:51;13.50;99.90
43949;DHT22;29429;51.074;13.764;2022-10-16T00:36:21;13.50;99.90
43949;DHT22;29429;51.074;13.764;2022-10-16T00:38:52;13.40;99.90
43949;DHT22;29429;51.074;13.764;2022-10-16T00:41:23;13.50;99.90
43949;DHT22;29429;51.074;13.764;2022-10-16T00:43:59;13.40;99.90
43949;DHT22;29429;51.074;13.764;2022-10-16T00:46:40;13.40;99.90
43949;DHT22;29429;51.074;13.764;2022-10-16T00:49:17;13.50;99.90
43949;DHT22;29429;51.074;13.764;2022-10-16T00:51:49;13.30;99.90
43949;DHT22;29429;51.074;13.764;2022-10-16T00:54:26;13.50;99.90
43949;DHT22;29429;51.074;13.764;2022-10-16T00:56:57;13.50;99.90
43949;DHT22;29429;51.074;13.764;2022-10-16T00:59:38;13.50;99.90
43949;DHT22;29429;51.074;13.764;2022-10-16T01:02:10;13.60;99.90
43949;DHT22;29429;51.074;13.764;2022-10-16T01:04:42;13.60;99.90
43949;DHT22;29429;51.074;13.764;2022-10-16T01:10:07;13.70;99.90
43949;DHT22;29429;51.074;13.764;2022-10-16T01:12:50;13.80;99.90
43949;DHT22;29429;51.074;13.764;2022-10-16T01:15:28;13.90;99.90
43949;DHT22;29429;51.074;13.764;2022-10-16T01:29:11;14.10;99.90
43949;DHT22;29429;51.074;13.764;2022-10-16T01:31:48;14.30;99.90
43949;DHT22;29429;51.074;13.764;2022-10-16T01:34:32;14.20;99.90
43949;DHT22;29429;51.074;13.764;2022-10-16T01:37:12;14.20;99.90
43949;DHT22;29429;51.074;13.764;2022-10-16T01:39:46;14.20;99.90
43949;DHT22;29429;51.074;13.764;2022-10-16T01:42:20;14.30;99.90
43949;DHT22;29429;51.074;13.764;2022-10-16T01:44:51;14.30;99.90
43949;DHT22;29429;51.074;13.764;2022-10-16T01:47:23;14.30;99.90
43949;DHT22;29429;51.074;13.764;2022-10-16T01:49:55;14.40;99.90
43949;DHT22;29429;51.074;13.764;2022-10-16T01:52:26;14.40;99.90
43949;DHT22;29429;51.074;13.764;2022-10-16T01:54:57;14.50;99.90
43949;DHT22;29429;51.074;13.764;2022-10-16T01:57:28;14.40;99.90
43949;DHT22;29429;51.074;13.764;2022-10-16T02:00:02;14.50;99.90
43949;DHT22;29429;51.074;13.764;2022-10-16T02:02:39;14.60;99.90
43949;DHT22;29429;51.074;13.764;2022-10-16T02:07:57;14.60;99.90
43949;DHT22;29429;51.074;13.764;2022-10-16T02:10:28;14.60;99.90
43949;DHT22;29429;51.074;13.764;2022-10-16T02:13:25;14.50;99.90
43949;DHT22;29429;51.074;13.764;2022-10-16T02:15:57;14.60;99.90
43949;DHT22;29429;51.074;13.764;2022-10-16T02:18:25;14.70;99.90
43949;DHT22;29429;51.074;13.764;2022-10-16T02:21:00;14.60;99.90
43949;DHT22;29429;51.074;13.764;2022-10-16T02:23:59;14.80;99.90
43949;DHT22;29429;51.074;13.764;2022-10-16T02:26:45;14.60;99.90
43949;DHT22;29429;51.074;13.764;2022-10-16T02:29:22;14.70;99.90
43949;DHT22;29429;51.074;13.764;2022-10-16T02:31:59;14.70;99.90
43949;DHT22;29429;51.074;13.764;2022-10-16T02:34:30;14.50;99.90
43949;DHT22;29429;51.074;13.764;2022-10-16T02:37:00;14.70;99.90
43949;DHT22;29429;51.074;13.764;2022-10-16T02:39:29;14.70;99.90
43949;DHT22;29429;51.074;13.764;2022-10-16T02:41:57;14.60;99.90
43949;DHT22;29429;51.074;13.764;2022-10-16T02:44:24;14.70;99.90
43949;DHT22;29429;51.074;13.764;2022-10-16T02:46:51;14.70;99.90
43949;DHT22;29429;51.074;13.764;2022-10-16T02:49:18;14.70;99.90
43949;DHT22;29429;51.074;13.764;2022-10-16T02:51:45;14.70;99.90
43949;DHT22;29429;51.074;13.764;2022-10-16T02:54:12;14.90;99.90
43949;DHT22;29429;51.074;13.764;2022-10-16T02:56:39;14.70;99.90
43949;DHT22;29429;51.074;13.764;2022-10-16T02:59:06;14.80;99.90
43949;DHT22;29429;51.074;13.764;2022-10-16T03:01:33;14.80;99.90
43949;DHT22;29429;51.074;13.764;2022-10-16T03:04:00;14.70;99.90
43949;DHT22;29429;51.074;13.764;2022-10-16T03:06:26;14.80;99.90
43949;DHT22;29429;51.074;13.764;2022-10-16T03:08:53;14.80;99.90
43949;DHT22;29429;51.074;13.764;2022-10-16T03:11:20;14.80;99.90
43949;DHT22;29429;51.074;13.764;2022-10-16T03:13:47;14.60;99.90
43949;DHT22;29429;51.074;13.764;2022-10-16T03:16:14;14.80;99.90
43949;DHT22;29429;51.074;13.764;2022-10-16T03:18:41;14.90;99.90
43949;DHT22;29429;51.074;13.764;2022-10-16T03:21:08;14.70;99.90
43949;DHT22;29429;51.074;13.764;2022-10-16T03:23:35;14.70;99.90
43949;DHT22;29429;51.074;13.764;2022-10-16T03:26:02;14.70;99.90
43949;DHT22;29429;51.074;13.764;2022-10-16T03:28:29;14.70;99.90
43949;DHT22;29429;51.074;13.764;2022-10-16T03:30:56;14.80;99.90
43949;DHT22;29429;51.074;13.764;2022-10-16T03:33:22;14.60;99.90
43949;DHT22;29429;51.074;13.764;2022-10-16T03:35:53;14.60;99.90
43949;DHT22;29429;51.074;13.764;2022-10-16T03:38:21;14.50;99.90
43949;DHT22;29429;51.074;13.764;2022-10-16T03:40:48;14.50;99.90
43949;DHT22;29429;51.074;13.764;2022-10-16T03:43:15;14.40;99.90
43949;DHT22;29429;51.074;13.764;2022-10-16T03:45:42;14.30;99.90
43949;DHT22;29429;51.074;13.764;2022-10-16T03:48:09;14.40;99.90
43949;DHT22;29429;51.074;13.764;2022-10-16T03:50:37;14.30;99.90
43949;DHT22;29429;51.074;13.764;2022-10-16T03:53:04;14.30;99.90
43949;DHT22;29429;51.074;13.764;2022-10-16T03:55:31;14.30;99.90
43949;DHT22;29429;51.074;13.764;2022-10-16T03:57:57;14.20;99.90
43949;DHT22;29429;51.074;13.764;2022-10-16T04:00:24;14.20;99.90
43949;DHT22;29429;51.074;13.764;2022-10-16T04:02:51;14.20;99.90
43949;DHT22;29429;51.074;13.764;2022-10-16T04:05:18;14.10;99.90
43949;DHT22;29429;51.074;13.764;2022-10-16T04:07:45;14.10;99.90
43949;DHT22;29429;51.074;13.764;2022-10-16T04:10:12;14.30;99.90
43949;DHT22;29429;51.074;13.764;2022-10-16T04:12:39;14.10;99.90
43949;DHT22;29429;51.074;13.764;2022-10-16T04:15:06;14.10;99.90
43949;DHT22;29429;51.074;13.764;2022-10-16T04:17:33;14.10;99.90
43949;DHT22;29429;51.074;13.764;2022-10-16T04:20:00;14.10;99.90
43949;DHT22;29429;51.074;13.764;2022-10-16T04:22:27;14.10;99.90
43949;DHT22;29429;51.074;13.764;2022-10-16T04:24:54;14.20;99.90
43949;DHT22;29429;51.074;13.764;2022-10-16T04:27:21;14.20;99.90
43949;DHT22;29429;51.074;13.764;2022-10-16T04:29:48;14.10;99.90
43949;DHT22;29429;51.074;13.764;2022-10-16T04:32:15;14.20;99.90
43949;DHT22;29429;51.074;13.764;2022-10-16T04:34:42;14.20;99.90
43949;DHT22;29429;51.074;13.764;2022-10-16T04:37:09;14.30;99.90
43949;DHT22;29429;51.074;13.764;2022-10-16T04:39:36;14.20;99.90
43949;DHT22;29429;51.074;13.764;2022-10-16T04:42:03;14.30;99.90
43949;DHT22;29429;51.074;13.764;2022-10-16T04:44:29;14.20;99.90
43949;DHT22;29429;51.074;13.764;2022-10-16T04:46:56;14.30;99.90
43949;DHT22;29429;51.074;13.764;2022-10-16T04:49:23;14.30;99.90
43949;DHT22;29429;51.074;13.764;2022-10-16T04:51:50;14.40;99.90
43949;DHT22;29429;51.074;13.764;2022-10-16T04:54:17;14.30;99.90
43949;DHT22;29429;51.074;13.764;2022-10-16T04:56:44;14.20;99.90
43949;DHT22;29429;51.074;13.764;2022-10-16T04:59:14;14.20;99.90
43949;DHT22;29429;51.074;13.764;2022-10-16T05:01:41;14.20;99.90
43949;DHT22;29429;51.074;13.764;2022-10-16T05:04:09;14.20;99.90
43949;DHT22;29429;51.074;13.764;2022-10-16T05:06:37;14.10;99.90
43949;DHT22;29429;51.074;13.764;2022-10-16T05:09:05;14.10;99.90
43949;DHT22;29429;51.074;13.764;2022-10-16T05:11:33;14.30;99.90
43949;DHT22;29429;51.074;13.764;2022-10-16T05:14:00;14.30;99.90
43949;DHT22;29429;51.074;13.764;2022-10-16T05:16:27;14.30;99.90
43949;DHT22;29429;51.074;13.764;2022-10-16T05:18:54;14.30;99.90
43949;DHT22;29429;51.074;13.764;2022-10-16T05:21:35;14.30;99.90
43949;DHT22;29429;51.074;13.764;2022-10-16T05:24:02;14.20;99.90
43949;DHT22;29429;51.074;13.764;2022-10-16T05:26:29;14.30;99.90
43949;DHT22;29429;51.074;13.764;2022-10-16T05:28:56;14.30;99.90
43949;DHT22;29429;51.074;13.764;2022-10-16T05:31:23;14.20;99.90
43949;DHT22;29429;51.074;13.764;2022-10-16T05:33:50;14.20;99.90
43949;DHT22;29429;51.074;13.764;2022-10-16T05:36:17;14.20;99.90
43949;DHT22;29429;51.074;13.764;2022-10-16T05:38:44;14.30;99.90
43949;DHT22;29429;51.074;13.764;2022-10-16T05:41:11;14.20;99.90
43949;DHT22;29429;51.074;13.764;2022-10-16T05:43:38;14.20;99.90
43949;DHT22;29429;51.074;13.764;2022-10-16T05:46:05;14.20;99.90
43949;DHT22;29429;51.074;13.764;2022-10-16T05:48:32;14.20;99.90
43949;DHT22;29429;51.074;13.764;2022-10-16T05:51:05;14.20;99.90
43949;DHT22;29429;51.074;13.764;2022-10-16T05:53:35;14.20;99.90
43949;DHT22;29429;51.074;13.764;2022-10-16T05:56:05;14.20;99.90
43949;DHT22;29429;51.074;13.764;2022-10-16T05:58:35;14.20;99.90
43949;DHT22;29429;51.074;13.764;2022-10-16T06:01:05;14.20;99.90
43949;DHT22;29429;51.074;13.764;2022-10-16T06:03:34;14.20;99.90
43949;DHT22;29429;51.074;13.764;2022-10-16T06:06:15;14.20;99.90
43949;DHT22;29429;51.074;13.764;2022-10-16T06:08:44;14.30;99.90
43949;DHT22;29429;51.074;13.764;2022-10-16T06:11:16;14.40;99.90
43949;DHT22;29429;51.074;13.764;2022-10-16T06:13:45;14.40;99.90
43949;DHT22;29429;51.074;13.764;2022-10-16T06:16:16;14.50;99.90
43949;DHT22;29429;51.074;13.764;2022-10-16T06:18:43;14.40;99.90
43949;DHT22;29429;51.074;13.764;2022-10-16T06:21:16;14.40;99.90
43949;DHT22;29429;51.074;13.764;2022-10-16T06:23:44;14.40;99.90
43949;DHT22;29429;51.074;13.764;2022-10-16T06:26:17;14.40;99.90
43949;DHT22;29429;51.074;13.764;2022-10-16T06:28:45;14.40;99.90
43949;DHT22;29429;51.074;13.764;2022-10-16T06:31:13;14.50;99.90
43949;DHT22;29429;51.074;13.764;2022-10-16T06:33:41;14.50;99.90
43949;DHT22;29429;51.074;13.764;2022-10-16T06:36:10;14.70;99.90
43949;DHT22;29429;51.074;13.764;2022-10-16T06:38:39;14.70;99.90
43949;DHT22;29429;51.074;13.764;2022-10-16T06:41:07;14.70;99.90
43949;DHT22;29429;51.074;13.764;2022-10-16T06:43:39;14.80;99.90
43949;DHT22;29429;51.074;13.764;2022-10-16T06:46:09;14.80;99.90
43949;DHT22;29429;51.074;13.764;2022-10-16T06:48:37;14.90;99.90
43949;DHT22;29429;51.074;13.764;2022-10-16T06:51:22;15.00;99.90
43949;DHT22;29429;51.074;13.764;2022-10-16T06:53:52;15.20;99.90
43949;DHT22;29429;51.074;13.764;2022-10-16T06:56:30;15.30;99.90
43949;DHT22;29429;51.074;13.764;2022-10-16T06:58:59;15.40;99.90
43949;DHT22;29429;51.074;13.764;2022-10-16T07:01:27;15.60;99.90
43949;DHT22;29429;51.074;13.764;2022-10-16T07:03:55;15.70;99.90
43949;DHT22;29429;51.074;13.764;2022-10-16T07:06:23;15.80;99.90
43949;DHT22;29429;51.074;13.764;2022-10-16T07:08:52;15.80;99.90
43949;DHT22;29429;51.074;13.764;2022-10-16T07:11:21;15.90;99.90
43949;DHT22;29429;51.074;13.764;2022-10-16T07:13:51;15.90;99.90
43949;DHT22;29429;51.074;13.764;2022-10-16T07:16:27;16.00;99.90
43949;DHT22;29429;51.074;13.764;2022-10-16T07:18:56;16.00;99.90
43949;DHT22;29429;51.074;13.764;2022-10-16T07:21:27;16.00;99.90
43949;DHT22;29429;51.074;13.764;2022-10-16T07:23:58;16.20;99.90
43949;DHT22;29429;51.074;13.764;2022-10-16T07:26:29;16.10;99.90
43949;DHT22;29429;51.074;13.764;2022-10-16T07:28:57;16.30;99.90
43949;DHT22;29429;51.074;13.764;2022-10-16T07:31:25;16.30;99.90
43949;DHT22;29429;51.074;13.764;2022-10-16T07:33:52;16.40;99.90
43949;DHT22;29429;51.074;13.764;2022-10-16T07:36:21;16.40;99.90
43949;DHT22;29429;51.074;13.764;2022-10-16T07:38:48;16.40;99.90
43949;DHT22;29429;51.074;13.764;2022-10-16T07:41:19;16.50;99.90
43949;DHT22;29429;51.074;13.764;2022-10-16T07:43:47;16.40;99.90
43949;DHT22;29429;51.074;13.764;2022-10-16T07:46:17;16.50;99.90
43949;DHT22;29429;51.074;13.764;2022-10-16T07:48:46;16.50;99.90
43949;DHT22;29429;51.074;13.764;2022-10-16T07:51:21;16.50;99.90
43949;DHT22;29429;51.074;13.764;2022-10-16T07:53:49;16.60;99.90
43949;DHT22;29429;51.074;13.764;2022-10-16T07:56:18;16.60;99.90
43949;DHT22;29429;51.074;13.764;2022-10-16T07:58:45;16.60;99.90
43949;DHT22;29429;51.074;13.764;2022-10-16T08:01:14;16.60;99.90
43949;DHT22;29429;51.074;13.764;2022-10-16T08:03:47;16.70;99.90
43949;DHT22;29429;51.074;13.764;2022-10-16T08:06:17;16.80;99.90
43949;DHT22;29429;51.074;13.764;2022-10-16T08:08:52;17.00;99.90
43949;DHT22;29429;51.074;13.764;2022-10-16T08:11:19;17.00;99.90
43949;DHT22;29429;51.074;13.764;2022-10-16T08:13:46;17.10;99.90
43949;DHT22;29429;51.074;13.764;2022-10-16T08:16:13;17.30;99.90
43949;DHT22;29429;51.074;13.764;2022-10-16T08:18:41;17.40;99.90
43949;DHT22;29429;51.074;13.764;2022-10-16T08:21:16;17.60;99.90
43949;DHT22;29429;51.074;13.764;2022-10-16T08:23:47;17.60;99.90
43949;DHT22;29429;51.074;13.764;2022-10-16T08:26:24;17.50;99.90
43949;DHT22;29429;51.074;13.764;2022-10-16T08:28:51;17.70;99.90
43949;DHT22;29429;51.074;13.764;2022-10-16T08:31:19;17.70;99.90
43949;DHT22;29429;51.074;13.764;2022-10-16T08:33:46;17.40;99.90
43949;DHT22;29429;51.074;13.764;2022-10-16T08:36:15;17.30;99.90
43949;DHT22;29429;51.074;13.764;2022-10-16T08:38:42;17.50;99.90
43949;DHT22;29429;51.074;13.764;2022-10-16T08:50:10;17.90;99.90
43949;DHT22;29429;51.074;13.764;2022-10-16T08:52:42;17.90;99.90
43949;DHT22;29429;51.074;13.764;2022-10-16T08:55:49;17.90;99.90
43949;DHT22;29429;51.074;13.764;2022-10-16T08:58:22;17.90;99.90
43949;DHT22;29429;51.074;13.764;2022-10-16T09:00:55;17.80;99.90
43949;DHT22;29429;51.074;13.764;2022-10-16T09:06:39;18.10;99.90
43949;DHT22;29429;51.074;13.764;2022-10-16T09:09:20;18.20;99.90
43949;DHT22;29429;51.074;13.764;2022-10-16T09:12:09;18.20;99.90
43949;DHT22;29429;51.074;13.764;2022-10-16T09:17:27;18.20;99.90
43949;DHT22;29429;51.074;13.764;2022-10-16T09:22:39;18.40;99.90
43949;DHT22;29429;51.074;13.764;2022-10-16T09:25:17;18.40;99.90
43949;DHT22;29429;51.074;13.764;2022-10-16T09:27:48;18.40;99.90
43949;DHT22;29429;51.074;13.764;2022-10-16T09:30:20;18.40;99.90
43949;DHT22;29429;51.074;13.764;2022-10-16T09:32:51;18.60;99.90
43949;DHT22;29429;51.074;13.764;2022-10-16T09:35:24;18.70;99.90
43949;DHT22;29429;51.074;13.764;2022-10-16T09:37:57;18.80;99.90
43949;DHT22;29429;51.074;13.764;2022-10-16T09:40:34;18.70;99.90
43949;DHT22;29429;51.074;13.764;2022-10-16T09:48:43;18.80;99.90
43949;DHT22;29429;51.074;13.764;2022-10-16T09:51:23;19.00;99.90
43949;DHT22;29429;51.074;13.764;2022-10-16T09:56:37;19.20;99.90
43949;DHT22;29429;51.074;13.764;2022-10-16T09:59:13;19.10;99.90
43949;DHT22;29429;51.074;13.764;2022-10-16T10:01:51;19.20;99.90
43949;DHT22;29429;51.074;13.764;2022-10-16T10:04:22;19.30;99.90
43949;DHT22;29429;51.074;13.764;2022-10-16T10:06:55;19.40;99.90
43949;DHT22;29429;51.074;13.764;2022-10-16T10:09:28;19.50;99.90
43949;DHT22;29429;51.074;13.764;2022-10-16T10:12:03;19.60;99.90
43949;DHT22;29429;51.074;13.764;2022-10-16T10:14:46;19.80;99.90
43949;DHT22;29429;51.074;13.764;2022-10-16T10:19:59;19.90;99.90
43949;DHT22;29429;51.074;13.764;2022-10-16T10:22:45;19.90;99.90
43949;DHT22;29429;51.074;13.764;2022-10-16T10:33:31;19.60;99.90
43949;DHT22;29429;51.074;13.764;2022-10-16T10:39:02;19.60;99.90
43949;DHT22;29429;51.074;13.764;2022-10-16T10:44:37;19.90;99.90
43949;DHT22;29429;51.074;13.764;2022-10-16T10:53:11;20.50;99.90
43949;DHT22;29429;51.074;13.764;2022-10-16T11:07:55;21.20;99.90
43949;DHT22;29429;51.074;13.764;2022-10-16T11:10:44;21.30;99.90
43949;DHT22;29429;51.074;13.764;2022-10-16T11:16:14;21.40;99.90
43949;DHT22;29429;51.074;13.764;2022-10-16T11:22:21;21.50;99.90
43949;DHT22;29429;51.074;13.764;2022-10-16T11:28:19;21.30;99.90
43949;DHT22;29429;51.074;13.764;2022-10-16T11:33:45;21.40;99.90
43949;DHT22;29429;51.074;13.764;2022-10-16T11:36:32;21.50;99.90
43949;DHT22;29429;51.074;13.764;2022-10-16T11:39:21;21.40;99.90
43949;DHT22;29429;51.074;13.764;2022-10-16T11:50:31;21.60;99.90
43949;DHT22;29429;51.074;13.764;2022-10-16T11:53:51;21.60;99.90
43949;DHT22;29429;51.074;13.764;2022-10-16T11:56:22;21.60;99.90
43949;DHT22;29429;51.074;13.764;2022-10-16T11:58:59;21.60;99.90
43949;DHT22;29429;51.074;13.764;2022-10-16T12:01:51;21.60;99.90
43949;DHT22;29429;51.074;13.764;2022-10-16T12:08:09;21.60;99.90
43949;DHT22;29429;51.074;13.764;2022-10-16T12:10:41;21.70;99.90
43949;DHT22;29429;51.074;13.764;2022-10-16T12:13:32;21.70;99.90
43949;DHT22;29429;51.074;13.764;2022-10-16T12:18:46;21.70;99.90
43949;DHT22;29429;51.074;13.764;2022-10-16T12:21:15;21.90;99.90
43949;DHT22;29429;51.074;13.764;2022-10-16T12:23:56;21.90;99.90
43949;DHT22;29429;51.074;13.764;2022-10-16T12:26:48;22.00;99.90
43949;DHT22;29429;51.074;13.764;2022-10-16T12:32:03;21.90;99.90
43949;DHT22;29429;51.074;13.764;2022-10-16T12:34:44;21.90;99.90
43949;DHT22;29429;51.074;13.764;2022-10-16T12:37:53;21.90;99.90
43949;DHT22;29429;51.074;13.764;2022-10-16T12:40:33;21.80;99.90
43949;DHT22;29429;51.074;13.764;2022-10-16T12:46:42;21.80;99.90
43949;DHT22;29429;51.074;13.764;2022-10-16T12:48:50;21.90;99.90
43949;DHT22;29429;51.074;13.764;2022-10-16T12:51:37;21.90;99.90
43949;DHT22;29429;51.074;13.764;2022-10-16T12:59:42;22.00;99.90
43949;DHT22;29429;51.074;13.764;2022-10-16T13:05:54;22.10;99.90
43949;DHT22;29429;51.074;13.764;2022-10-16T13:17:59;21.70;99.90
43949;DHT22;29429;51.074;13.764;2022-10-16T13:23:55;21.70;99.90
43949;DHT22;29429;51.074;13.764;2022-10-16T13:26:57;21.70;99.90
43949;DHT22;29429;51.074;13.764;2022-10-16T13:29:34;21.70;99.90
43949;DHT22;29429;51.074;13.764;2022-10-16T13:32:07;21.70;99.90
43949;DHT22;29429;51.074;13.764;2022-10-16T13:34:46;21.60;99.90
43949;DHT22;29429;51.074;13.764;2022-10-16T13:37:19;21.50;99.90
43949;DHT22;29429;51.074;13.764;2022-10-16T13:39:49;21.50;99.90
43949;DHT22;29429;51.074;13.764;2022-10-16T13:42:25;21.40;99.90
43949;DHT22;29429;51.074;13.764;2022-10-16T13:44:54;21.40;99.90
43949;DHT22;29429;51.074;13.764;2022-10-16T13:47:27;21.30;99.90
43949;DHT22;29429;51.074;13.764;2022-10-16T13:50:15;21.20;99.90
43949;DHT22;29429;51.074;13.764;2022-10-16T13:52:44;21.10;99.90
43949;DHT22;29429;51.074;13.764;2022-10-16T13:55:17;20.90;99.90
43949;DHT22;29429;51.074;13.764;2022-10-16T13:57:45;20.70;99.90
43949;DHT22;29429;51.074;13.764;2022-10-16T14:00:24;20.60;99.90
43949;DHT22;29429;51.074;13.764;2022-10-16T14:03:11;20.60;99.90
43949;DHT22;29429;51.074;13.764;2022-10-16T14:05:48;20.60;99.90
43949;DHT22;29429;51.074;13.764;2022-10-16T14:08:18;20.60;99.90
43949;DHT22;29429;51.074;13.764;2022-10-16T14:10:57;20.70;99.90
43949;DHT22;29429;51.074;13.764;2022-10-16T14:13:38;20.80;99.90
43949;DHT22;29429;51.074;13.764;2022-10-16T14:16:18;20.80;99.90
43949;DHT22;29429;51.074;13.764;2022-10-16T14:19:00;20.80;99.90
43949;DHT22;29429;51.074;13.764;2022-10-16T14:21:32;20.80;99.90
43949;DHT22;29429;51.074;13.764;2022-10-16T14:24:11;20.80;99.90
43949;DHT22;29429;51.074;13.764;2022-10-16T14:26:58;20.80;99.90
43949;DHT22;29429;51.074;13.764;2022-10-16T14:29:28;20.80;99.90
43949;DHT22;29429;51.074;13.764;2022-10-16T14:32:02;20.70;99.90
43949;DHT22;29429;51.074;13.764;2022-10-16T14:34:36;20.70;99.90
43949;DHT22;29429;51.074;13.764;2022-10-16T14:37:36;20.60;99.90
43949;DHT22;29429;51.074;13.764;2022-10-16T14:40:03;20.60;99.90
43949;DHT22;29429;51.074;13.764;2022-10-16T14:42:31;20.60;99.90
43949;DHT22;29429;51.074;13.764;2022-10-16T14:44:58;20.50;99.90
43949;DHT22;29429;51.074;13.764;2022-10-16T14:47:26;20.50;99.90
43949;DHT22;29429;51.074;13.764;2022-10-16T14:49:54;20.50;99.90
43949;DHT22;29429;51.074;13.764;2022-10-16T14:52:22;20.40;99.90
43949;DHT22;29429;51.074;13.764;2022-10-16T14:54:50;20.30;99.90
43949;DHT22;29429;51.074;13.764;2022-10-16T14:57:24;20.20;99.90
43949;DHT22;29429;51.074;13.764;2022-10-16T14:59:54;20.10;99.90
43949;DHT22;29429;51.074;13.764;2022-10-16T15:02:30;20.00;99.90
43949;DHT22;29429;51.074;13.764;2022-10-16T15:05:29;19.90;99.90
43949;DHT22;29429;51.074;13.764;2022-10-16T15:07:58;19.80;99.90
43949;DHT22;29429;51.074;13.764;2022-10-16T15:10:27;19.80;99.90
43949;DHT22;29429;51.074;13.764;2022-10-16T15:12:55;19.70;99.90
43949;DHT22;29429;51.074;13.764;2022-10-16T15:18:08;19.50;99.90
43949;DHT22;29429;51.074;13.764;2022-10-16T15:20:37;19.50;99.90
43949;DHT22;29429;51.074;13.764;2022-10-16T15:23:16;19.40;99.90
43949;DHT22;29429;51.074;13.764;2022-10-16T15:25:49;19.30;99.90
43949;DHT22;29429;51.074;13.764;2022-10-16T15:28:18;19.30;99.90
43949;DHT22;29429;51.074;13.764;2022-10-16T15:30:50;19.20;99.90
43949;DHT22;29429;51.074;13.764;2022-10-16T15:33:26;19.10;99.90
43949;DHT22;29429;51.074;13.764;2022-10-16T15:36:04;19.00;99.90
43949;DHT22;29429;51.074;13.764;2022-10-16T15:38:31;19.00;99.90
43949;DHT22;29429;51.074;13.764;2022-10-16T15:40:58;18.90;99.90
43949;DHT22;29429;51.074;13.764;2022-10-16T15:43:25;19.00;99.90
43949;DHT22;29429;51.074;13.764;2022-10-16T15:46:12;18.80;99.90
43949;DHT22;29429;51.074;13.764;2022-10-16T15:48:40;18.70;99.90
43949;DHT22;29429;51.074;13.764;2022-10-16T15:51:08;18.70;99.90
43949;DHT22;29429;51.074;13.764;2022-10-16T15:53:36;18.60;99.90
43949;DHT22;29429;51.074;13.764;2022-10-16T15:56:04;18.60;99.90
43949;DHT22;29429;51.074;13.764;2022-10-16T15:58:32;18.50;99.90
43949;DHT22;29429;51.074;13.764;2022-10-16T16:01:01;18.50;99.90
43949;DHT22;29429;51.074;13.764;2022-10-16T16:03:29;18.40;99.90
43949;DHT22;29429;51.074;13.764;2022-10-16T16:05:58;18.40;99.90
43949;DHT22;29429;51.074;13.764;2022-10-16T16:08:29;18.30;99.90
43949;DHT22;29429;51.074;13.764;2022-10-16T16:11:00;18.30;99.90
43949;DHT22;29429;51.074;13.764;2022-10-16T16:13:28;18.20;99.90
43949;DHT22;29429;51.074;13.764;2022-10-16T16:15:56;18.20;99.90
43949;DHT22;29429;51.074;13.764;2022-10-16T16:18:23;18.20;99.90
43949;DHT22;29429;51.074;13.764;2022-10-16T16:20:51;18.10;99.90
43949;DHT22;29429;51.074;13.764;2022-10-16T16:23:18;18.10;99.90
43949;DHT22;29429;51.074;13.764;2022-10-16T16:28:48;17.90;99.90
43949;DHT22;29429;51.074;13.764;2022-10-16T16:31:15;17.70;99.90
43949;DHT22;29429;51.074;13.764;2022-10-16T16:33:42;17.80;99.90
43949;DHT22;29429;51.074;13.764;2022-10-16T16:36:09;17.70;99.90
43949;DHT22;29429;51.074;13.764;2022-10-16T16:38:41;17.80;99.90
43949;DHT22;29429;51.074;13.764;2022-10-16T16:41:20;17.60;99.90
43949;DHT22;29429;51.074;13.764;2022-10-16T16:43:48;17.50;99.90
43949;DHT22;29429;51.074;13.764;2022-10-16T16:46:17;17.50;99.90
43949;DHT22;29429;51.074;13.764;2022-10-16T16:48:45;17.30;99.90
43949;DHT22;29429;51.074;13.764;2022-10-16T16:51:15;17.30;99.90
43949;DHT22;29429;51.074;13.764;2022-10-16T16:53:52;17.20;99.90
43949;DHT22;29429;51.074;13.764;2022-10-16T16:56:21;17.10;99.90
43949;DHT22;29429;51.074;13.764;2022-10-16T16:58:51;17.00;99.90
43949;DHT22;29429;51.074;13.764;2022-10-16T17:01:22;17.00;99.90
43949;DHT22;29429;51.074;13.764;2022-10-16T17:03:53;17.10;99.90
43949;DHT22;29429;51.074;13.764;2022-10-16T17:06:23;16.90;99.90
43949;DHT22;29429;51.074;13.764;2022-10-16T17:08:52;17.00;99.90
43949;DHT22;29429;51.074;13.764;2022-10-16T17:11:25;16.70;99.90
43949;DHT22;29429;51.074;13.764;2022-10-16T17:13:55;16.60;99.90
43949;DHT22;29429;51.074;13.764;2022-10-16T17:16:30;16.60;99.90
43949;DHT22;29429;51.074;13.764;2022-10-16T17:19:00;16.60;99.90
43949;DHT22;29429;51.074;13.764;2022-10-16T17:21:28;16.50;99.90
43949;DHT22;29429;51.074;13.764;2022-10-16T17:23:57;16.40;99.90
43949;DHT22;29429;51.074;13.764;2022-10-16T17:26:25;16.30;99.90
43949;DHT22;29429;51.074;13.764;2022-10-16T17:28:58;16.30;99.90
43949;DHT22;29429;51.074;13.764;2022-10-16T17:31:29;16.10;99.90
43949;DHT22;29429;51.074;13.764;2022-10-16T17:33:59;16.10;99.90
43949;DHT22;29429;51.074;13.764;2022-10-16T17:36:27;16.10;99.90
43949;DHT22;29429;51.074;13.764;2022-10-16T17:39:01;16.00;99.90
43949;DHT22;29429;51.074;13.764;2022-10-16T17:41:31;16.00;99.90
43949;DHT22;29429;51.074;13.764;2022-10-16T17:43:59;16.00;99.90
43949;DHT22;29429;51.074;13.764;2022-10-16T17:46:26;15.90;99.90
43949;DHT22;29429;51.074;13.764;2022-10-16T17:48:55;15.90;99.90
43949;DHT22;29429;51.074;13.764;2022-10-16T17:51:26;15.80;99.90
43949;DHT22;29429;51.074;13.764;2022-10-16T17:53:57;15.70;99.90
43949;DHT22;29429;51.074;13.764;2022-10-16T17:56:26;15.70;99.90
43949;DHT22;29429;51.074;13.764;2022-10-16T17:59:02;15.70;99.90
43949;DHT22;29429;51.074;13.764;2022-10-16T18:01:32;15.60;99.90
43949;DHT22;29429;51.074;13.764;2022-10-16T18:04:04;15.60;99.90